createdAt,value
2023-11-25T00:01:27.548Z,2.08
2023-11-25T00:03:57.544Z,2.15
2023-11-25T00:06:29.705Z,2.83
2023-11-25T00:08:57.578Z,3.08
2023-11-25T00:11:29.769Z,2.50
2023-11-25T00:14:00.379Z,2.50
2023-11-25T00:16:30.455Z,2.17
2023-11-25T00:18:57.494Z,2.55
2023-11-25T00:21:27.007Z,2.47
2023-11-25T00:23:53.805Z,2.40
2023-11-25T00:26:20.833Z,2.75
2023-11-25T00:28:51.063Z,2.33
2023-11-25T00:31:24.243Z,2.85
2023-11-25T00:33:52.177Z,1.77
2023-11-25T00:36:19.104Z,2.25
2023-11-25T00:38:46.155Z,2.50
2023-11-25T00:41:13.182Z,2.53
2023-11-25T00:43:40.850Z,1.73
2023-11-25T00:46:09.919Z,3.35
2023-11-25T00:48:38.050Z,2.63
2023-11-25T00:51:07.517Z,2.10
2023-11-25T00:53:34.333Z,1.85
2023-11-25T00:56:03.029Z,2.67
2023-11-25T00:58:30.473Z,2.15
2023-11-25T01:00:57.260Z,2.88
2023-11-25T01:03:25.654Z,3.40
2023-11-25T01:05:54.423Z,2.38
2023-11-25T01:08:21.509Z,1.63
2023-11-25T01:10:48.869Z,2.30
2023-11-25T01:13:16.024Z,2.40
2023-11-25T01:15:42.850Z,2.38
2023-11-25T01:18:10.844Z,3.03
2023-11-25T01:20:38.235Z,2.35
2023-11-25T01:23:06.862Z,1.98
2023-11-25T01:25:33.880Z,2.22
2023-11-25T01:28:06.401Z,1.48
2023-11-25T01:30:35.037Z,2.95
2023-11-25T01:33:08.127Z,2.47
2023-11-25T01:35:34.971Z,1.90
2023-11-25T01:38:01.930Z,2.20
2023-11-25T01:40:30.822Z,2.40
2023-11-25T01:42:57.486Z,1.88
2023-11-25T01:45:25.663Z,2.05
2023-11-25T01:47:53.429Z,2.22
2023-11-25T01:50:23.860Z,2.88
2023-11-25T01:52:51.202Z,3.58
2023-11-25T01:55:23.273Z,2.50
2023-11-25T01:57:51.958Z,2.35
2023-11-25T02:00:19.903Z,3.53
2023-11-25T02:02:50.748Z,2.03
2023-11-25T02:05:17.912Z,2.20
2023-11-25T02:07:48.096Z,3.03
2023-11-25T02:10:16.582Z,2.33
2023-11-25T02:12:47.393Z,2.45
2023-11-25T02:15:19.099Z,2.15
2023-11-25T02:20:30.037Z,1.88
2023-11-25T02:22:58.923Z,2.22
2023-11-25T02:25:26.045Z,1.75
2023-11-25T02:27:52.671Z,1.98
2023-11-25T02:30:20.871Z,1.92
2023-11-25T02:32:48.515Z,1.75
2023-11-25T02:35:26.508Z,2.25
2023-11-25T02:37:53.622Z,2.17
2023-11-25T02:40:25.428Z,2.05
2023-11-25T02:42:53.609Z,2.28
2023-11-25T02:45:30.164Z,1.95
2023-11-25T02:47:57.117Z,1.60
2023-11-25T02:50:25.163Z,1.63
2023-11-25T02:53:05.855Z,1.85
2023-11-25T02:55:34.771Z,1.92
2023-11-25T02:58:01.630Z,1.58
2023-11-25T03:00:34.577Z,2.38
2023-11-25T03:03:10.566Z,2.38
2023-11-25T03:05:43.433Z,2.58
2023-11-25T03:08:21.971Z,2.25
2023-11-25T03:10:54.218Z,2.08
2023-11-25T03:13:21.462Z,1.20
2023-11-25T03:15:55.575Z,1.60
2023-11-25T03:18:28.023Z,1.92
2023-11-25T03:20:57.494Z,2.15
2023-11-25T03:23:25.644Z,2.00
2023-11-25T03:25:56.616Z,1.20
2023-11-25T03:28:25.035Z,1.73
2023-11-25T03:30:52.996Z,1.50
2023-11-25T03:33:23.049Z,1.13
2023-11-25T03:35:49.860Z,0.82
2023-11-25T03:38:16.883Z,0.68
2023-11-25T03:40:44.246Z,0.80
2023-11-25T03:43:15.798Z,1.00
2023-11-25T03:45:49.119Z,0.50
2023-11-25T03:48:16.358Z,0.47
2023-11-25T03:50:46.449Z,0.50
2023-11-25T03:53:14.453Z,0.63
2023-11-25T03:55:42.524Z,0.70
2023-11-25T03:58:09.451Z,0.75
2023-11-25T04:00:43.809Z,0.60
2023-11-25T04:05:41.046Z,0.60
2023-11-25T04:08:08.920Z,0.80
2023-11-25T04:10:35.837Z,0.22
2023-11-25T04:13:06.849Z,0.70
2023-11-25T04:15:33.899Z,0.75
2023-11-25T04:18:13.492Z,0.90
2023-11-25T04:20:40.982Z,0.60
2023-11-25T04:23:09.471Z,0.80
2023-11-25T04:25:37.009Z,0.70
2023-11-25T04:28:06.157Z,0.90
2023-11-25T04:30:34.937Z,0.60
2023-11-25T04:33:04.063Z,0.90
2023-11-25T04:35:30.928Z,1.40
2023-11-25T04:38:01.430Z,1.20
2023-11-25T04:40:28.534Z,0.95
2023-11-25T04:42:55.529Z,0.88
2023-11-25T04:45:22.251Z,1.40
2023-11-25T04:47:54.350Z,0.82
2023-11-25T04:50:23.317Z,0.82
2023-11-25T04:52:51.678Z,1.02
2023-11-25T04:57:57.018Z,1.35
2023-11-25T05:00:26.756Z,1.20
2023-11-25T05:02:54.107Z,1.40
2023-11-25T05:05:25.809Z,1.45
2023-11-25T05:07:53.114Z,1.60
2023-11-25T05:10:21.931Z,1.50
2023-11-25T05:12:51.263Z,1.80
2023-11-25T05:15:20.120Z,1.10
2023-11-25T05:17:50.798Z,1.10
2023-11-25T05:20:19.773Z,0.77
2023-11-25T05:22:52.325Z,0.90
2023-11-25T05:25:29.654Z,0.40
2023-11-25T05:28:04.436Z,1.02
2023-11-25T05:30:31.599Z,0.47
2023-11-25T05:32:58.844Z,0.80
2023-11-25T05:35:25.818Z,0.47
2023-11-25T05:37:54.419Z,0.40
2023-11-25T05:40:21.648Z,1.10
2023-11-25T05:42:50.055Z,0.98
2023-11-25T05:45:21.961Z,1.05
2023-11-25T05:47:49.139Z,0.88
2023-11-25T05:50:17.185Z,0.70
2023-11-25T05:52:44.254Z,1.70
2023-11-25T05:55:23.425Z,1.20
2023-11-25T05:58:07.793Z,1.27
2023-11-25T06:00:38.573Z,1.23
2023-11-25T06:05:43.636Z,1.52
2023-11-25T06:08:13.396Z,0.98
2023-11-25T06:10:41.871Z,1.40
2023-11-25T06:13:17.815Z,1.80
2023-11-25T06:15:53.649Z,0.43
2023-11-25T06:18:22.099Z,1.00
2023-11-25T06:20:49.254Z,1.10
2023-11-25T06:23:16.640Z,1.15
2023-11-25T06:25:45.627Z,1.83
2023-11-25T06:28:14.419Z,1.10
2023-11-25T06:30:54.967Z,0.88
2023-11-25T06:33:23.625Z,1.10
2023-11-25T06:35:50.652Z,1.30
2023-11-25T06:38:17.838Z,0.98
2023-11-25T06:40:46.885Z,0.77
2023-11-25T06:43:14.549Z,0.80
2023-11-25T06:45:49.345Z,1.92
2023-11-25T06:48:25.923Z,1.20
2023-11-25T06:51:02.112Z,1.05
2023-11-25T06:53:30.358Z,0.90
2023-11-25T06:58:29.535Z,0.43
2023-11-25T07:01:06.467Z,0.50
2023-11-25T07:03:35.419Z,0.50
2023-11-25T07:06:07.175Z,0.50
2023-11-25T07:08:34.272Z,0.70
2023-11-25T07:11:06.800Z,0.93
2023-11-25T07:13:36.379Z,0.88
2023-11-25T07:16:06.036Z,0.20
2023-11-25T07:18:34.156Z,0.90
2023-11-25T07:23:38.703Z,0.95
2023-11-25T07:26:08.228Z,0.98
2023-11-25T07:28:39.457Z,0.93
2023-11-25T07:31:08.820Z,1.20
2023-11-25T07:33:48.806Z,1.25
2023-11-25T07:36:22.677Z,0.73
2023-11-25T07:38:50.813Z,1.20
2023-11-25T07:41:17.853Z,0.82
2023-11-25T07:43:47.065Z,1.20
2023-11-25T07:46:14.707Z,1.08
2023-11-25T07:48:53.449Z,1.23
2023-11-25T07:51:24.529Z,1.63
2023-11-25T07:53:53.948Z,1.42
2023-11-25T07:56:21.318Z,1.02
2023-11-25T07:58:49.674Z,1.65
2023-11-25T08:03:45.428Z,0.90
2023-11-25T08:06:14.394Z,1.00
2023-11-25T08:08:43.328Z,1.30
2023-11-25T08:11:09.909Z,1.27
2023-11-25T08:13:37.038Z,1.52
2023-11-25T08:16:09.070Z,1.55
2023-11-25T08:18:44.245Z,1.30
2023-11-25T08:21:15.129Z,2.15
2023-11-25T08:23:43.843Z,1.20
2023-11-25T08:26:23.537Z,1.40
2023-11-25T08:29:00.491Z,1.25
2023-11-25T08:31:29.211Z,1.13
2023-11-25T08:33:56.071Z,1.33
2023-11-25T08:36:30.066Z,1.00
2023-11-25T08:39:03.054Z,1.33
2023-11-25T08:41:31.373Z,1.27
2023-11-25T08:44:02.895Z,1.00
2023-11-25T08:46:35.686Z,2.45
2023-11-25T08:49:06.395Z,1.65
2023-11-25T08:51:33.419Z,0.90
2023-11-25T08:54:00.577Z,1.20
2023-11-25T08:56:35.761Z,0.95
2023-11-25T08:59:07.007Z,0.90
2023-11-25T09:01:40.610Z,1.00
2023-11-25T09:04:22.064Z,1.80
2023-11-25T09:06:52.648Z,1.35
2023-11-25T09:09:25.550Z,1.80
2023-11-25T09:11:52.770Z,1.67
2023-11-25T09:14:22.918Z,1.30
2023-11-25T09:16:52.096Z,1.52
2023-11-25T09:19:26.875Z,1.10
2023-11-25T09:21:56.514Z,1.40
2023-11-25T09:24:26.477Z,1.67
2023-11-25T09:26:55.720Z,1.92
2023-11-25T09:29:27.282Z,1.30
2023-11-25T09:31:56.316Z,1.60
2023-11-25T09:34:34.849Z,2.17
2023-11-25T09:37:04.321Z,1.40
2023-11-25T09:39:32.374Z,1.35
2023-11-25T09:42:02.430Z,1.40
2023-11-25T09:44:30.214Z,1.60
2023-11-25T09:46:59.089Z,1.80
2023-11-25T09:49:26.743Z,1.35
2023-11-25T09:52:03.064Z,1.83
2023-11-25T09:54:37.012Z,1.88
2023-11-25T09:57:11.565Z,2.00
2023-11-25T09:59:51.780Z,2.35
2023-11-25T10:02:21.362Z,1.48
2023-11-25T10:04:55.297Z,1.80
2023-11-25T10:07:48.392Z,1.80
2023-11-25T10:10:25.671Z,1.10
2023-11-25T10:12:55.119Z,1.50
2023-11-25T10:15:23.795Z,1.23
2023-11-25T10:17:52.631Z,1.98
2023-11-25T10:20:25.269Z,1.80
2023-11-25T10:22:55.262Z,1.85
2023-11-25T10:25:27.854Z,2.08
2023-11-25T10:27:56.509Z,1.95
2023-11-25T10:30:26.414Z,1.67
2023-11-25T10:33:00.095Z,1.58
2023-11-25T10:35:39.348Z,1.85
2023-11-25T10:41:27.935Z,1.33
2023-11-25T10:43:54.778Z,1.67
2023-11-25T10:46:37.130Z,1.55
2023-11-25T10:49:06.582Z,1.63
2023-11-25T10:51:33.561Z,1.58
2023-11-25T10:54:01.679Z,1.30
2023-11-25T10:56:30.994Z,1.52
2023-11-25T10:58:58.573Z,1.50
2023-11-25T11:01:28.097Z,1.45
2023-11-25T11:04:14.422Z,1.13
2023-11-25T11:07:12.494Z,1.55
2023-11-25T11:09:40.826Z,0.95
2023-11-25T11:12:20.796Z,1.13
2023-11-25T11:14:53.391Z,1.63
2023-11-25T11:17:35.446Z,0.98
2023-11-25T11:20:02.671Z,0.70
2023-11-25T11:22:29.702Z,0.30
2023-11-25T11:25:08.471Z,0.55
2023-11-25T11:27:41.633Z,1.00
2023-11-25T11:33:06.108Z,0.75
2023-11-25T11:36:00.038Z,1.98
2023-11-25T11:38:27.937Z,1.27
2023-11-25T11:40:59.156Z,0.80
2023-11-25T11:43:30.253Z,0.70
2023-11-25T11:45:57.594Z,0.80
2023-11-25T11:48:25.803Z,0.88
2023-11-25T11:53:20.362Z,1.00
2023-11-25T11:55:51.616Z,0.95
2023-11-25T11:58:21.824Z,1.85
2023-11-25T12:00:56.357Z,1.48
2023-11-25T12:03:26.205Z,1.00
2023-11-25T12:05:53.357Z,1.40
2023-11-25T12:08:20.251Z,1.10
2023-11-25T12:10:47.076Z,1.15
2023-11-25T12:13:29.612Z,0.75
2023-11-25T12:16:00.779Z,0.70
2023-11-25T12:18:28.300Z,0.90
2023-11-25T12:21:02.821Z,1.67
2023-11-25T12:23:44.193Z,0.75
2023-11-25T12:26:19.454Z,1.00
2023-11-25T12:28:48.049Z,1.73
2023-11-25T12:31:15.050Z,1.33
2023-11-25T12:33:41.832Z,2.45
2023-11-25T12:36:09.460Z,1.33
2023-11-25T12:38:38.501Z,1.85
2023-11-25T12:41:12.285Z,1.10
2023-11-25T12:43:59.261Z,1.77
2023-11-25T12:46:27.608Z,1.63
2023-11-25T12:48:54.409Z,1.83
2023-11-25T12:51:21.569Z,2.35
2023-11-25T12:53:55.504Z,1.70
2023-11-25T12:56:22.926Z,2.03
2023-11-25T12:58:49.957Z,2.13
2023-11-25T13:01:16.813Z,1.85
2023-11-25T13:03:45.500Z,1.58
2023-11-25T13:06:19.766Z,1.58
2023-11-25T13:08:47.382Z,1.95
2023-11-25T13:11:19.020Z,1.88
2023-11-25T13:13:46.624Z,1.70
2023-11-25T13:16:14.735Z,1.80
2023-11-25T13:18:49.342Z,2.03
2023-11-25T13:21:16.549Z,1.73
2023-11-25T13:23:44.828Z,1.90
2023-11-25T13:26:13.621Z,1.75
2023-11-25T13:28:41.483Z,1.42
2023-11-25T13:31:08.749Z,0.80
2023-11-25T13:33:35.955Z,1.48
2023-11-25T13:36:04.562Z,1.52
2023-11-25T13:38:31.789Z,1.75
2023-11-25T13:40:58.513Z,1.98
2023-11-25T13:43:25.852Z,2.20
2023-11-25T13:45:55.997Z,1.30
2023-11-25T13:48:23.069Z,2.00
2023-11-25T13:50:52.205Z,2.45
2023-11-25T13:53:22.657Z,2.78
2023-11-25T13:55:50.279Z,1.98
2023-11-25T13:58:22.899Z,1.60
2023-11-25T14:00:50.036Z,1.05
2023-11-25T14:03:19.467Z,1.30
2023-11-25T14:05:47.480Z,1.35
2023-11-25T14:08:34.007Z,1.40
2023-11-25T14:11:05.775Z,2.00
2023-11-25T14:13:33.078Z,2.00
2023-11-25T14:16:00.975Z,2.13
2023-11-25T14:18:28.163Z,1.70
2023-11-25T14:20:55.359Z,2.38
2023-11-25T14:23:22.407Z,1.70
2023-11-25T14:25:52.294Z,1.67
2023-11-25T14:28:23.421Z,1.60
2023-11-25T14:30:50.640Z,1.85
2023-11-25T14:33:17.824Z,1.73
2023-11-25T14:35:45.333Z,1.40
2023-11-25T14:38:13.277Z,1.33
2023-11-25T14:40:40.729Z,1.60
2023-11-25T14:43:10.186Z,1.48
2023-11-25T14:45:41.520Z,1.42
2023-11-25T14:48:11.956Z,1.40
2023-11-25T14:50:46.168Z,2.03
2023-11-25T14:53:14.462Z,1.65
2023-11-25T14:55:44.251Z,1.95
2023-11-25T14:58:12.012Z,1.30
2023-11-25T15:00:42.150Z,1.35
2023-11-25T15:03:10.280Z,1.92
2023-11-25T15:08:06.111Z,1.40
2023-11-25T15:10:37.833Z,2.55
2023-11-25T15:13:08.056Z,1.40
2023-11-25T15:15:39.119Z,1.90
2023-11-25T15:18:17.148Z,1.40
2023-11-25T15:20:44.137Z,1.77
2023-11-25T15:23:14.178Z,1.65
2023-11-25T15:25:42.765Z,1.33
2023-11-25T15:28:17.101Z,1.40
2023-11-25T15:30:47.481Z,1.70
2023-11-25T15:33:16.699Z,1.83
2023-11-25T15:35:43.947Z,1.52
2023-11-25T15:38:14.058Z,1.65
2023-11-25T15:40:41.418Z,1.38
2023-11-25T15:43:08.321Z,1.73
2023-11-25T15:45:35.329Z,1.35
2023-11-25T15:48:03.848Z,1.95
2023-11-25T15:50:32.684Z,2.08
2023-11-25T15:52:59.685Z,1.65
2023-11-25T15:55:27.565Z,1.45
2023-11-25T15:57:54.554Z,1.63
2023-11-25T16:00:21.783Z,1.67
2023-11-25T16:02:48.841Z,1.98
2023-11-25T16:05:16.460Z,2.42
2023-11-25T16:07:47.132Z,1.80
2023-11-25T16:10:16.894Z,2.15
2023-11-25T16:12:45.128Z,1.92
2023-11-25T16:15:15.388Z,3.60
2023-11-25T16:17:44.001Z,3.47
2023-11-25T16:20:11.525Z,2.97
2023-11-25T16:22:38.509Z,2.20
2023-11-25T16:25:14.118Z,4.57
2023-11-25T16:27:41.391Z,2.22
2023-11-25T16:30:09.497Z,2.80
2023-11-25T16:32:36.966Z,2.95
2023-11-25T16:35:04.104Z,2.72
2023-11-25T16:37:31.630Z,2.10
2023-11-25T16:39:59.421Z,1.70
2023-11-25T16:42:28.309Z,3.25
2023-11-25T16:44:55.424Z,2.05
2023-11-25T16:47:25.134Z,2.72
2023-11-25T16:49:55.224Z,2.50
2023-11-25T16:52:25.763Z,1.92
2023-11-25T16:54:52.476Z,2.13
2023-11-25T16:57:19.342Z,2.00
2023-11-25T16:59:47.644Z,2.35
2023-11-25T17:02:14.754Z,1.92
2023-11-25T17:04:44.207Z,2.78
2023-11-25T17:07:13.825Z,2.40
2023-11-25T17:09:41.094Z,2.50
2023-11-25T17:12:11.714Z,3.20
2023-11-25T17:14:38.753Z,2.10
2023-11-25T17:17:10.307Z,2.50
2023-11-25T17:22:07.487Z,3.45
2023-11-25T17:24:36.085Z,2.70
2023-11-25T17:27:03.011Z,2.10
2023-11-25T17:29:30.182Z,2.63
2023-11-25T17:31:57.144Z,2.13
2023-11-25T17:34:28.972Z,2.35
2023-11-25T17:36:59.774Z,2.58
2023-11-25T17:39:30.559Z,2.40
2023-11-25T17:41:57.870Z,2.45
2023-11-25T17:44:24.705Z,2.60
2023-11-25T17:46:54.824Z,2.50
2023-11-25T17:49:21.577Z,2.88
2023-11-25T17:51:51.709Z,3.03
2023-11-25T17:54:18.429Z,2.75
2023-11-25T17:56:45.726Z,2.08
2023-11-25T17:59:13.265Z,2.03
2023-11-25T18:01:41.365Z,2.33
2023-11-25T18:04:08.994Z,2.03
2023-11-25T18:06:35.945Z,2.30
2023-11-25T18:09:06.073Z,2.97
2023-11-25T18:11:35.428Z,2.88
2023-11-25T18:14:14.271Z,2.67
2023-11-25T18:16:41.598Z,2.58
2023-11-25T18:19:11.753Z,2.92
2023-11-25T18:21:39.094Z,2.95
2023-11-25T18:24:08.626Z,3.17
2023-11-25T18:26:35.457Z,3.45
2023-11-25T18:29:03.463Z,6.30
2023-11-25T18:31:30.801Z,8.15
2023-11-25T18:33:58.263Z,3.08
2023-11-25T18:36:25.493Z,4.47
2023-11-25T18:38:52.314Z,4.47
2023-11-25T18:41:21.123Z,3.05
2023-11-25T18:43:48.085Z,3.13
2023-11-25T18:46:17.517Z,2.38
2023-11-25T18:48:45.518Z,3.40
2023-11-25T18:51:12.219Z,4.43
2023-11-25T18:53:42.670Z,2.42
2023-11-25T18:56:12.421Z,2.55
2023-11-25T18:58:40.804Z,2.45
2023-11-25T19:01:11.139Z,3.53
2023-11-25T19:03:39.205Z,5.40
2023-11-25T19:06:09.719Z,2.60
2023-11-25T19:08:36.679Z,2.05
2023-11-25T19:11:05.495Z,2.03
2023-11-25T19:13:40.092Z,3.28
2023-11-25T19:16:13.729Z,9.35
2023-11-25T19:18:44.600Z,2.63
2023-11-25T19:21:11.494Z,2.20
2023-11-25T19:23:39.466Z,2.03
2023-11-25T19:26:06.288Z,2.15
2023-11-25T19:28:33.095Z,2.20
2023-11-25T19:31:02.458Z,3.47
2023-11-25T19:33:34.906Z,2.10
2023-11-25T19:36:04.783Z,1.77
2023-11-25T19:38:31.420Z,1.90
2023-11-25T19:40:58.496Z,2.28
2023-11-25T19:43:25.538Z,2.35
2023-11-25T19:45:52.407Z,2.95
2023-11-25T19:48:19.599Z,2.95
2023-11-25T19:50:49.669Z,1.98
2023-11-25T19:53:17.106Z,2.75
2023-11-25T19:55:51.133Z,2.53
2023-11-25T19:58:42.008Z,2.25
2023-11-25T20:01:12.386Z,1.88
2023-11-25T20:03:51.240Z,2.35
2023-11-25T20:06:19.499Z,2.35
2023-11-25T20:11:12.970Z,2.35
2023-11-25T20:13:39.965Z,2.40
2023-11-25T20:16:07.173Z,2.97
2023-11-25T20:18:34.127Z,2.75
2023-11-25T20:21:03.100Z,3.45
2023-11-25T20:23:31.679Z,2.72
2023-11-25T20:25:58.396Z,4.05
2023-11-25T20:28:25.099Z,4.32
2023-11-25T20:30:52.044Z,3.70
2023-11-25T20:33:18.967Z,5.57
2023-11-25T20:35:45.965Z,4.13
2023-11-25T20:38:12.890Z,4.20
2023-11-25T20:40:41.719Z,4.72
2023-11-25T20:43:09.524Z,3.47
2023-11-25T20:45:41.800Z,3.10
2023-11-25T20:48:09.741Z,2.30
2023-11-25T20:50:38.337Z,3.22
2023-11-25T20:53:05.254Z,3.10
2023-11-25T20:55:32.064Z,2.40
2023-11-25T20:58:00.814Z,2.50
2023-11-25T21:00:29.021Z,2.85
2023-11-25T21:05:24.747Z,2.65
2023-11-25T21:07:51.753Z,2.22
2023-11-25T21:10:18.980Z,2.97
2023-11-25T21:12:45.845Z,2.47
2023-11-25T21:15:15.300Z,2.55
2023-11-25T21:17:44.974Z,1.80
2023-11-25T21:20:14.257Z,2.03
2023-11-25T21:22:41.246Z,3.33
2023-11-25T21:25:08.461Z,2.78
2023-11-25T21:27:38.825Z,2.72
2023-11-25T21:30:06.304Z,2.30
2023-11-25T21:32:34.682Z,2.30
2023-11-25T21:37:51.390Z,2.25
2023-11-25T21:40:23.999Z,2.33
2023-11-25T21:42:58.464Z,2.15
2023-11-25T21:45:27.350Z,1.98
2023-11-25T21:47:56.098Z,3.05
2023-11-25T21:50:23.157Z,2.15
2023-11-25T21:52:51.523Z,3.08
2023-11-25T21:55:19.358Z,2.50
2023-11-25T21:57:47.979Z,2.00
2023-11-25T22:00:16.853Z,2.28
2023-11-25T22:02:48.143Z,2.85
2023-11-25T22:05:16.602Z,2.25
2023-11-25T22:07:48.979Z,2.10
2023-11-25T22:10:24.893Z,2.40
2023-11-25T22:13:17.095Z,1.60
2023-11-25T22:15:55.218Z,2.10
2023-11-25T22:18:31.991Z,2.50
2023-11-25T22:21:01.232Z,2.28
2023-11-25T22:26:05.453Z,2.78
2023-11-25T22:28:34.540Z,2.50
2023-11-25T22:31:01.464Z,2.08
2023-11-25T22:33:28.413Z,2.70
2023-11-25T22:35:58.779Z,2.40
2023-11-25T22:38:35.776Z,2.10
2023-11-25T22:41:10.163Z,2.28
2023-11-25T22:43:43.175Z,2.40
2023-11-25T22:46:16.742Z,2.63
2023-11-25T22:48:45.487Z,2.50
2023-11-25T22:51:15.215Z,2.28
2023-11-25T22:53:47.649Z,1.98
2023-11-25T22:56:17.454Z,2.30
2023-11-25T22:58:45.385Z,2.40
2023-11-25T23:01:19.194Z,2.55
2023-11-25T23:03:46.709Z,2.55
2023-11-25T23:06:15.620Z,2.10
2023-11-25T23:08:50.854Z,2.50
2023-11-25T23:11:30.212Z,2.97
2023-11-25T23:13:57.556Z,2.65
2023-11-25T23:16:26.530Z,2.47
2023-11-25T23:18:53.501Z,2.75
2023-11-25T23:21:20.621Z,2.70
2023-11-25T23:23:50.498Z,2.47
2023-11-25T23:26:20.487Z,2.58
2023-11-25T23:28:51.582Z,2.42
2023-11-25T23:31:21.614Z,1.77
2023-11-25T23:33:52.707Z,2.38
2023-11-25T23:36:33.150Z,1.92
2023-11-25T23:39:00.262Z,2.30
2023-11-25T23:41:27.081Z,1.80
2023-11-25T23:43:56.164Z,1.90
2023-11-25T23:46:25.234Z,2.05
2023-11-25T23:48:54.999Z,2.72
2023-11-25T23:51:22.037Z,2.33
2023-11-25T23:53:50.470Z,1.90
2023-11-25T23:56:17.606Z,2.58
2023-11-25T23:58:47.541Z,2.53
